Ana Sayfa
METAR-TAF:

METAR-TAF

Havaalanları :

Ponta Delgada, Azor Adaları, Portekiz

Enlem: 37-44N, Boylam: 025-42W, yükseklik: 71 m

Güncel hava durumu gözlemi

Rapor saat 18:00 UTC de 42 dakika önce yapıldı.
Rüzgar batıdan 6 kt
Sıcaklık 17°C
Nem 82%
Basınç 1032 hPa
Görüş mesafesi 10 km veya daha fazla
1800 ft yükseklikte az bulutlu

METAR: LPPD 241800Z 26006KT 9999 FEW018 17/14 Q1032

Saat: 17:42 (18:42 UTC)

Tahmin

Rapor saat 17:00 UTC de 1 saat ve 42 dakika önce yapıldı.
Ayın 24'si saat 18 UTC'den ayın 25'si saat 18 UTC'ye kadar geçerli Tahmin
Rüzgar değişken yönden 5 kt
Görüş mesafesi 10 km veya daha fazla
1500 ft yükseklikte az bulutlu

TAF: LPPD 241700Z 2418/2518 VRB05KT 9999 FEW015

4.000'den fazla havaalanı için hava durumu gözlemleri ve tahminleri (METAR ve TAF raporları).

Kullanılabilir istasyonlar harita üzerinde sarı ve kırmızı noktalarla gösterilir.

İstasyonun adını görmek için fareyi noktanın üzerinde gezdirin.

Sonrasında hava gözlem ve tahminlerini görmek için tıklayın.

Haritayı değiştirmek için: yaklaştırmak için siyah artı işaretli yeşil düğmeye ve uzaklaştırmak için de eksi işaretli düğmeye hızla tıklayın; bitişik haritalar için yeşil okları kullanın.


METAR-TAF: